Time,TemperatureF,DewpointF,PressureIn,WindDirection,WindDirectionDegrees,WindSpeedMPH,WindSpeedGustMPH,Humidity,HourlyPrecipIn,Conditions,Clouds,dailyrainin,SoftwareType,DateUTC
2013-09-24 00:02:00,57.7,51.9,29.87,ESE,109,5.0,8.0,81,0.00,,SKC,0.00,VWS V14.01,2013-09-24 05:02:00,
2013-09-24 00:07:00,57.6,51.8,29.87,East,100,4.0,8.0,81,0.00,,SKC,0.00,VWS V14.01,2013-09-24 05:07:00,
2013-09-24 00:12:00,57.5,51.7,29.87,ESE,117,4.0,8.0,81,0.00,,SKC,0.00,VWS V14.01,2013-09-24 05:12:00,
2013-09-24 00:17:00,57.4,51.6,29.88,ESE,120,1.0,8.0,81,0.00,,SKC,0.00,VWS V14.01,2013-09-24 05:17:00,
2013-09-24 00:22:00,57.2,51.8,29.88,ESE,119,0.0,8.0,82,0.00,,SKC,0.00,VWS V14.01,2013-09-24 05:22:00,
2013-09-24 00:27:00,57.0,51.6,29.88,ESE,112,5.0,8.0,82,0.00,,SKC,0.00,VWS V14.01,2013-09-24 05:27:00,
2013-09-24 00:32:00,56.8,51.4,29.88,ESE,112,0.0,1.0,82,0.00,,SKC,0.00,VWS V14.01,2013-09-24 05:32:00,
2013-09-24 00:37:00,56.7,51.6,29.88,ESE,112,0.0,4.0,83,0.00,,SKC,0.00,VWS V14.01,2013-09-24 05:37:00,
2013-09-24 00:42:00,56.4,51.3,29.88,ESE,112,0.0,4.0,83,0.00,,SKC,0.00,VWS V14.01,2013-09-24 05:42:00,
2013-09-24 00:47:00,56.1,51.3,29.88,ESE,112,0.0,4.0,84,0.00,,SKC,0.00,VWS V14.01,2013-09-24 05:47:00,
2013-09-24 00:52:00,55.9,51.1,29.88,ESE,112,0.0,4.0,84,0.00,,SKC,0.00,VWS V14.01,2013-09-24 05:52:00,
2013-09-24 00:57:00,55.5,50.8,29.88,ESE,112,0.0,4.0,84,0.00,,SKC,0.00,VWS V14.01,2013-09-24 05:57:00,
2013-09-24 01:02:00,55.1,50.7,29.88,ESE,112,0.0,0.0,85,0.00,,SKC,0.00,VWS V14.01,2013-09-24 06:02:00,
2013-09-24 01:07:00,54.7,50.6,29.88,ESE,112,0.0,0.0,86,0.00,,SKC,0.00,VWS V14.01,2013-09-24 06:07:00,
2013-09-24 01:12:00,54.4,50.3,29.88,ESE,112,0.0,0.0,86,0.00,,SKC,0.00,VWS V14.01,2013-09-24 06:12:00,
2013-09-24 01:17:00,54.0,49.9,29.89,ESE,112,0.0,0.0,86,0.00,,SKC,0.00,VWS V14.01,2013-09-24 06:17:00,
2013-09-24 01:22:00,53.5,49.7,29.89,ESE,112,0.0,0.0,87,0.00,,SKC,0.00,VWS V14.01,2013-09-24 06:22:00,
2013-09-24 01:27:00,53.1,49.7,29.89,ESE,112,0.0,0.0,88,0.00,,SKC,0.00,VWS V14.01,2013-09-24 06:27:00,
2013-09-24 01:32:00,53.0,50.2,29.89,ESE,112,0.0,0.0,90,0.00,,SKC,0.00,VWS V14.01,2013-09-24 06:32:00,
2013-09-24 01:37:00,53.1,50.2,29.89,ESE,112,0.0,1.0,90,0.00,,SKC,0.00,VWS V14.01,2013-09-24 06:37:00,
2013-09-24 01:42:00,53.2,50.3,29.89,ESE,112,0.0,1.0,90,0.00,,SKC,0.00,VWS V14.01,2013-09-24 06:42:00,
2013-09-24 01:47:00,53.2,50.3,29.89,ESE,112,0.0,1.0,90,0.00,,SKC,0.00,VWS V14.01,2013-09-24 06:47:00,
2013-09-24 01:52:00,53.2,50.3,29.89,ESE,112,0.0,1.0,90,0.00,,SKC,0.00,VWS V14.01,2013-09-24 06:52:00,
2013-09-24 01:57:00,53.2,50.3,29.89,ESE,112,0.0,1.0,90,0.00,,SKC,0.00,VWS V14.01,2013-09-24 06:57:00,
2013-09-24 02:02:00,53.2,50.3,29.89,ESE,112,0.0,0.0,90,0.00,,SKC,0.00,VWS V14.01,2013-09-24 07:02:00,
2013-09-24 02:07:00,53.1,50.0,29.90,ESE,112,0.0,0.0,89,0.00,,SKC,0.00,VWS V14.01,2013-09-24 07:07:00,
2013-09-24 02:12:00,52.9,49.8,29.90,ESE,112,0.0,0.0,89,0.00,,SKC,0.00,VWS V14.01,2013-09-24 07:12:00,
2013-09-24 02:16:00,52.6,49.5,29.90,ESE,112,0.0,0.0,89,0.00,,SKC,0.00,VWS V14.01,2013-09-24 07:16:00,
2013-09-24 02:21:00,52.2,48.8,29.90,ESE,112,0.0,0.0,88,0.00,,SKC,0.00,VWS V14.01,2013-09-24 07:21:00,
2013-09-24 02:26:00,51.9,48.8,29.90,ESE,112,0.0,0.0,89,0.00,,SKC,0.00,VWS V14.01,2013-09-24 07:26:00,
2013-09-24 02:31:00,51.5,48.4,29.90,ESE,112,0.0,0.0,89,0.00,,SKC,0.00,VWS V14.01,2013-09-24 07:31:00,
2013-09-24 02:36:00,51.2,48.1,29.90,ESE,112,0.0,0.0,89,0.00,,SKC,0.00,VWS V14.01,2013-09-24 07:36:00,
2013-09-24 02:41:00,50.8,48.0,29.90,ESE,112,0.0,0.0,90,0.00,,SKC,0.00,VWS V14.01,2013-09-24 07:41:00,
2013-09-24 02:46:00,50.6,48.1,29.90,ESE,112,0.0,0.0,91,0.00,,SKC,0.00,VWS V14.01,2013-09-24 07:46:00,
2013-09-24 02:51:00,50.3,47.8,29.90,ESE,112,0.0,0.0,91,0.00,,SKC,0.00,VWS V14.01,2013-09-24 07:51:00,
2013-09-24 02:56:00,49.9,48.5,29.89,ESE,112,0.0,0.0,95,0.00,,SKC,0.00,VWS V14.01,2013-09-24 07:56:00,
2013-09-24 03:01:00,49.6,47.4,29.89,ESE,112,0.0,0.0,92,0.00,,SKC,0.00,VWS V14.01,2013-09-24 08:01:00,
2013-09-24 03:06:00,49.4,47.2,29.89,ESE,112,0.0,0.0,92,0.00,,SKC,0.00,VWS V14.01,2013-09-24 08:06:00,
2013-09-24 03:11:00,49.3,47.7,29.89,ESE,112,0.0,0.0,94,0.00,,SKC,0.00,VWS V14.01,2013-09-24 08:11:00,
2013-09-24 03:16:00,49.4,47.8,29.90,ESE,112,0.0,0.0,94,0.00,,SKC,0.00,VWS V14.01,2013-09-24 08:16:00,
2013-09-24 03:21:00,49.3,47.4,29.89,ESE,112,0.0,0.0,93,0.00,,SKC,0.00,VWS V14.01,2013-09-24 08:21:00,
2013-09-24 03:26:00,49.0,47.3,29.89,ESE,112,0.0,1.0,94,0.00,,SKC,0.00,VWS V14.01,2013-09-24 08:26:00,
2013-09-24 03:31:00,49.2,47.8,29.89,ESE,112,0.0,0.0,95,0.00,,SKC,0.00,VWS V14.01,2013-09-24 08:31:00,
2013-09-24 03:36:00,49.2,47.8,29.89,ESE,112,0.0,0.0,95,0.00,,SKC,0.00,VWS V14.01,2013-09-24 08:36:00,
2013-09-24 03:41:00,49.4,48.0,29.89,ESE,112,0.0,1.0,95,0.00,,SKC,0.00,VWS V14.01,2013-09-24 08:41:00,
2013-09-24 03:46:00,49.5,48.4,29.89,ESE,112,0.0,1.0,96,0.00,,SKC,0.00,VWS V14.01,2013-09-24 08:46:00,
2013-09-24 03:51:00,49.6,48.2,29.89,ESE,112,0.0,1.0,95,0.00,,SKC,0.00,VWS V14.01,2013-09-24 08:51:00,
2013-09-24 03:56:00,49.5,48.1,29.89,ESE,112,0.0,1.0,95,0.00,,SKC,0.00,VWS V14.01,2013-09-24 08:56:00,
2013-09-24 04:01:00,49.8,48.7,29.89,ESE,112,0.0,0.0,96,0.00,,SKC,0.00,VWS V14.01,2013-09-24 09:01:00,
2013-09-24 04:06:00,49.9,48.8,29.89,ESE,112,0.0,0.0,96,0.00,,SKC,0.00,VWS V14.01,2013-09-24 09:06:00,
2013-09-24 04:11:00,49.9,48.5,29.89,ESE,112,0.0,0.0,95,0.00,,SKC,0.00,VWS V14.01,2013-09-24 09:11:00,
2013-09-24 04:16:00,50.0,48.9,29.89,ESE,112,0.0,1.0,96,0.00,,SKC,0.00,VWS V14.01,2013-09-24 09:16:00,
2013-09-24 04:21:00,50.1,49.0,29.89,ESE,112,0.0,2.0,96,0.00,,SKC,0.00,VWS V14.01,2013-09-24 09:21:00,
2013-09-24 04:26:00,50.3,49.2,29.89,ESE,112,0.0,2.0,96,0.00,,SKC,0.00,VWS V14.01,2013-09-24 09:26:00,
2013-09-24 04:31:00,50.4,49.3,29.89,ESE,112,0.0,0.0,96,0.00,,SKC,0.00,VWS V14.01,2013-09-24 09:31:00,
2013-09-24 04:36:00,50.4,49.0,29.89,ESE,112,0.0,0.0,95,0.00,,SKC,0.00,VWS V14.01,2013-09-24 09:36:00,
2013-09-24 04:41:00,50.5,49.4,29.89,ESE,112,0.0,0.0,96,0.00,,SKC,0.00,VWS V14.01,2013-09-24 09:41:00,
2013-09-24 04:46:00,50.5,49.1,29.89,ESE,112,0.0,1.0,95,0.00,,SKC,0.00,VWS V14.01,2013-09-24 09:46:00,
2013-09-24 04:51:00,50.4,49.0,29.89,ESE,112,0.0,1.0,95,0.00,,SKC,0.00,VWS V14.01,2013-09-24 09:51:00,
2013-09-24 04:56:00,50.4,49.0,29.89,ESE,112,0.0,1.0,95,0.00,,SKC,0.00,VWS V14.01,2013-09-24 09:56:00,
2013-09-24 05:01:00,50.3,48.9,29.90,ESE,112,0.0,0.0,95,0.00,,SKC,0.00,VWS V14.01,2013-09-24 10:01:00,
2013-09-24 05:06:00,50.3,48.9,29.89,ESE,112,0.0,1.0,95,0.00,,SKC,0.00,VWS V14.01,2013-09-24 10:06:00,
2013-09-24 05:11:00,50.3,48.9,29.90,ESE,112,0.0,1.0,95,0.00,,SKC,0.00,VWS V14.01,2013-09-24 10:11:00,
2013-09-24 05:16:00,50.3,48.9,29.90,ESE,112,0.0,1.0,95,0.00,,SKC,0.00,VWS V14.01,2013-09-24 10:16:00,
2013-09-24 05:21:00,50.3,48.9,29.90,ESE,112,0.0,1.0,95,0.00,,SKC,0.00,VWS V14.01,2013-09-24 10:21:00,
2013-09-24 05:26:00,50.3,48.9,29.90,ESE,112,0.0,1.0,95,0.00,,SKC,0.00,VWS V14.01,2013-09-24 10:26:00,
2013-09-24 05:31:00,50.3,48.9,29.90,ESE,112,1.0,2.0,95,0.00,,SKC,0.00,VWS V14.01,2013-09-24 10:31:00,
2013-09-24 05:36:00,50.3,48.9,29.90,ESE,112,5.0,5.0,95,0.00,,SKC,0.00,VWS V14.01,2013-09-24 10:36:00,
2013-09-24 05:41:00,50.3,48.9,29.90,ESE,112,0.0,5.0,95,0.00,,SKC,0.00,VWS V14.01,2013-09-24 10:41:00,
2013-09-24 05:46:00,50.4,49.0,29.90,ESE,112,0.0,5.0,95,0.00,,SKC,0.00,VWS V14.01,2013-09-24 10:46:00,
2013-09-24 05:51:00,50.4,49.0,29.90,ESE,112,0.0,5.0,95,0.00,,SKC,0.00,VWS V14.01,2013-09-24 10:51:00,
2013-09-24 05:56:00,50.4,49.0,29.89,ESE,112,0.0,5.0,95,0.00,,SKC,0.00,VWS V14.01,2013-09-24 10:56:00,
2013-09-24 06:01:00,50.3,48.9,29.90,ESE,112,0.0,4.0,95,0.00,,SKC,0.00,VWS V14.01,2013-09-24 11:01:00,
2013-09-24 06:06:00,50.3,48.9,29.90,ESE,112,0.0,5.0,95,0.00,,SKC,0.00,VWS V14.01,2013-09-24 11:06:00,
2013-09-24 06:11:00,50.2,48.8,29.90,ESE,112,0.0,5.0,95,0.00,,SKC,0.00,VWS V14.01,2013-09-24 11:11:00,
2013-09-24 06:16:00,50.2,48.8,29.90,ESE,112,1.0,5.0,95,0.00,,SKC,0.00,VWS V14.01,2013-09-24 11:16:00,
2013-09-24 06:21:00,50.1,48.7,29.90,ESE,112,0.0,5.0,95,0.00,,SKC,0.00,VWS V14.01,2013-09-24 11:21:00,
2013-09-24 06:26:00,50.1,48.7,29.90,ESE,112,0.0,5.0,95,0.00,,SKC,0.00,VWS V14.01,2013-09-24 11:26:00,
2013-09-24 06:31:00,50.1,48.7,29.90,ESE,110,0.0,4.0,95,0.00,,SKC,0.00,VWS V14.01,2013-09-24 11:31:00,
2013-09-24 06:36:00,50.0,48.6,29.90,ESE,110,0.0,4.0,95,0.00,,SKC,0.00,VWS V14.01,2013-09-24 11:36:00,
2013-09-24 06:41:00,50.0,48.6,29.90,ESE,105,1.0,5.0,95,0.00,,SKC,0.00,VWS V14.01,2013-09-24 11:41:00,
2013-09-24 06:46:00,50.0,48.6,29.90,ESE,105,0.0,5.0,95,0.00,,SKC,0.00,VWS V14.01,2013-09-24 11:46:00,
2013-09-24 06:51:00,50.0,48.6,29.91,ESE,105,0.0,5.0,95,0.00,,SKC,0.00,VWS V14.01,2013-09-24 11:51:00,
2013-09-24 06:56:00,50.0,48.6,29.91,ESE,105,0.0,5.0,95,0.00,,SKC,0.00,VWS V14.01,2013-09-24 11:56:00,
2013-09-24 07:01:00,49.9,48.5,29.91,ESE,103,0.0,5.0,95,0.00,,SKC,0.00,VWS V14.01,2013-09-24 12:01:00,
2013-09-24 07:06:00,49.9,48.5,29.90,ESE,103,0.0,5.0,95,0.00,,SKC,0.00,VWS V14.01,2013-09-24 12:06:00,
2013-09-24 07:11:00,49.9,48.5,29.91,ESE,103,0.0,5.0,95,0.00,,SKC,0.00,VWS V14.01,2013-09-24 12:11:00,
2013-09-24 07:16:00,49.8,48.4,29.91,ESE,102,2.0,5.0,95,0.00,,SKC,0.00,VWS V14.01,2013-09-24 12:16:00,
2013-09-24 07:21:00,49.7,48.3,29.91,ESE,102,0.0,5.0,95,0.00,,SKC,0.00,VWS V14.01,2013-09-24 12:21:00,
2013-09-24 07:26:00,49.8,48.4,29.91,East,101,0.0,5.0,95,0.00,,SKC,0.00,VWS V14.01,2013-09-24 12:26:00,
2013-09-24 07:31:00,50.0,48.6,29.91,East,101,0.0,2.0,95,0.00,,SKC,0.00,VWS V14.01,2013-09-24 12:31:00,
2013-09-24 07:36:00,50.3,49.2,29.91,East,101,0.0,4.0,96,0.00,,SKC,0.00,VWS V14.01,2013-09-24 12:36:00,
2013-09-24 07:41:00,50.5,49.1,29.91,ESE,111,2.0,6.0,95,0.00,,SKC,0.00,VWS V14.01,2013-09-24 12:41:00,
2013-09-24 07:46:00,50.8,49.4,29.91,East,95,0.0,6.0,95,0.00,,SKC,0.00,VWS V14.01,2013-09-24 12:46:00,
2013-09-24 07:51:00,51.2,49.8,29.91,ESE,105,0.0,6.0,95,0.00,,SKC,0.00,VWS V14.01,2013-09-24 12:51:00,
2013-09-24 07:56:00,51.5,49.8,29.91,ESE,123,5.0,6.0,94,0.00,,SKC,0.00,VWS V14.01,2013-09-24 12:56:00,
2013-09-24 08:01:00,51.8,50.1,29.91,SE,138,5.0,7.0,94,0.00,,SKC,0.00,VWS V14.01,2013-09-24 13:01:00,
2013-09-24 08:06:00,52.2,50.5,29.91,East,81,4.0,7.0,94,0.00,,SKC,0.00,VWS V14.01,2013-09-24 13:06:00,
2013-09-24 08:11:00,52.4,50.4,29.91,ESE,121,5.0,8.0,93,0.00,,SKC,0.00,VWS V14.01,2013-09-24 13:11:00,
2013-09-24 08:16:00,52.8,50.5,29.91,East,96,4.0,8.0,92,0.00,,SKC,0.00,VWS V14.01,2013-09-24 13:16:00,
2013-09-24 08:21:00,53.1,50.8,29.91,ESE,114,2.0,8.0,92,0.00,,SKC,0.00,VWS V14.01,2013-09-24 13:21:00,
2013-09-24 08:26:00,53.4,50.8,29.91,East,82,5.0,8.0,91,0.00,,SKC,0.00,VWS V14.01,2013-09-24 13:26:00,
2013-09-24 08:31:00,53.6,51.0,29.91,ESE,108,6.0,6.0,91,0.00,,SKC,0.00,VWS V14.01,2013-09-24 13:31:00,
2013-09-24 08:36:00,53.6,50.7,29.91,ESE,103,6.0,7.0,90,0.00,,SKC,0.00,VWS V14.01,2013-09-24 13:36:00,
2013-09-24 08:41:00,53.9,51.0,29.92,East,99,0.0,7.0,90,0.00,,SKC,0.00,VWS V14.01,2013-09-24 13:41:00,
2013-09-24 08:46:00,54.2,51.0,29.92,ENE,76,5.0,9.0,89,0.00,,SKC,0.00,VWS V14.01,2013-09-24 13:46:00,
2013-09-24 08:51:00,54.3,50.8,29.92,ESE,116,2.0,9.0,88,0.00,,SKC,0.00,VWS V14.01,2013-09-24 13:51:00,
2013-09-24 08:56:00,54.4,50.9,29.92,ESE,111,2.0,9.0,88,0.00,,SKC,0.00,VWS V14.01,2013-09-24 13:56:00,
2013-09-24 09:01:00,54.7,51.2,29.92,East,100,5.0,6.0,88,0.00,,SKC,0.00,VWS V14.01,2013-09-24 14:01:00,
2013-09-24 09:06:00,54.9,51.4,29.92,East,96,2.0,8.0,88,0.00,,SKC,0.00,VWS V14.01,2013-09-24 14:06:00,
2013-09-24 09:11:00,55.3,51.8,29.92,ESE,106,2.0,8.0,88,0.00,,SKC,0.00,VWS V14.01,2013-09-24 14:11:00,
2013-09-24 09:16:00,56.0,51.9,29.92,SE,125,5.0,12.0,86,0.00,,SKC,0.00,VWS V14.01,2013-09-24 14:16:00,
2013-09-24 09:21:00,56.6,52.2,29.92,ESE,113,6.0,12.0,85,0.00,,SKC,0.00,VWS V14.01,2013-09-24 14:21:00,
2013-09-24 09:26:00,57.1,52.6,29.92,SE,124,7.0,12.0,85,0.00,,SKC,0.00,VWS V14.01,2013-09-24 14:26:00,
2013-09-24 09:31:00,57.5,52.7,29.92,ESE,107,8.0,11.0,84,0.00,,SKC,0.00,VWS V14.01,2013-09-24 14:31:00,
2013-09-24 09:36:00,57.8,52.3,29.92,ESE,121,6.0,12.0,82,0.00,,SKC,0.00,VWS V14.01,2013-09-24 14:36:00,
2013-09-24 09:41:00,58.1,53.0,29.92,ESE,117,4.0,12.0,83,0.00,,SKC,0.00,VWS V14.01,2013-09-24 14:41:00,
2013-09-24 09:46:00,58.4,52.3,29.92,ESE,112,5.0,12.0,80,0.00,,SKC,0.00,VWS V14.01,2013-09-24 14:46:00,
2013-09-24 09:51:00,58.4,52.3,29.92,ESE,113,5.0,12.0,80,0.00,,SKC,0.00,VWS V14.01,2013-09-24 14:51:00,
2013-09-24 09:56:00,58.6,52.5,29.92,ESE,116,4.0,12.0,80,0.00,,SKC,0.00,VWS V14.01,2013-09-24 14:56:00,
2013-09-24 10:01:00,58.8,52.3,29.93,ESE,119,5.0,7.0,79,0.00,,SKC,0.00,VWS V14.01,2013-09-24 15:01:00,
2013-09-24 10:06:00,59.0,52.8,29.93,ESE,123,4.0,8.0,80,0.00,,SKC,0.00,VWS V14.01,2013-09-24 15:06:00,
2013-09-24 10:11:00,59.6,53.1,29.93,ESE,109,0.0,8.0,79,0.00,,SKC,0.00,VWS V14.01,2013-09-24 15:11:00,
2013-09-24 10:16:00,60.1,53.6,29.93,East,92,1.0,10.0,79,0.00,,SKC,0.00,VWS V14.01,2013-09-24 15:16:00,
2013-09-24 10:21:00,60.5,53.3,29.93,ESE,104,4.0,10.0,77,0.00,,SKC,0.00,VWS V14.01,2013-09-24 15:21:00,
2013-09-24 10:26:00,60.6,53.0,29.93,ENE,73,1.0,10.0,76,0.00,,SKC,0.00,VWS V14.01,2013-09-24 15:26:00,
2013-09-24 10:31:00,60.7,53.5,29.93,East,86,4.0,7.0,77,0.00,,SKC,0.00,VWS V14.01,2013-09-24 15:31:00,
2013-09-24 10:36:00,60.9,53.3,29.93,SE,126,5.0,7.0,76,0.00,,SKC,0.00,VWS V14.01,2013-09-24 15:36:00,
2013-09-24 10:41:00,61.2,53.6,29.93,ESE,113,4.0,8.0,76,0.00,,SKC,0.00,VWS V14.01,2013-09-24 15:41:00,
2013-09-24 10:46:00,61.8,54.2,29.93,East,85,1.0,8.0,76,0.00,,SKC,0.00,VWS V14.01,2013-09-24 15:46:00,
2013-09-24 10:51:00,62.2,53.8,29.93,ESE,117,0.0,8.0,74,0.00,,SKC,0.00,VWS V14.01,2013-09-24 15:51:00,
2013-09-24 10:56:00,62.7,53.5,29.92,ENE,77,4.0,8.0,72,0.00,,SKC,0.00,VWS V14.01,2013-09-24 15:56:00,
2013-09-24 11:01:00,63.2,53.7,29.92,ESE,107,2.0,6.0,71,0.00,,SKC,0.00,VWS V14.01,2013-09-24 16:01:00,
2013-09-24 11:06:00,63.5,54.3,29.92,East,92,6.0,7.0,72,0.00,,SKC,0.00,VWS V14.01,2013-09-24 16:06:00,
2013-09-24 11:11:00,63.6,54.0,29.92,East,93,6.0,10.0,71,0.00,,SKC,0.00,VWS V14.01,2013-09-24 16:11:00,
2013-09-24 11:16:00,64.0,54.4,29.92,ESE,123,7.0,10.0,71,0.00,,SKC,0.00,VWS V14.01,2013-09-24 16:16:00,
2013-09-24 11:21:00,64.2,54.6,29.92,ESE,110,0.0,10.0,71,0.00,,SKC,0.00,VWS V14.01,2013-09-24 16:21:00,
2013-09-24 11:26:00,64.4,54.0,29.92,ENE,73,8.0,10.0,69,0.00,,SKC,0.00,VWS V14.01,2013-09-24 16:26:00,
2013-09-24 11:31:00,64.6,55.0,29.92,East,99,4.0,5.0,71,0.00,,SKC,0.00,VWS V14.01,2013-09-24 16:31:00,
2013-09-24 11:36:00,65.1,54.7,29.92,ESE,123,0.0,6.0,69,0.00,,SKC,0.00,VWS V14.01,2013-09-24 16:36:00,
2013-09-24 11:41:00,65.4,54.6,29.92,ENE,76,6.0,8.0,68,0.00,,SKC,0.00,VWS V14.01,2013-09-24 16:41:00,
2013-09-24 11:46:00,65.7,54.5,29.91,East,99,5.0,8.0,67,0.00,,SKC,0.00,VWS V14.01,2013-09-24 16:46:00,
2013-09-24 11:51:00,66.1,54.8,29.91,SE,135,4.0,8.0,67,0.00,,SKC,0.00,VWS V14.01,2013-09-24 16:51:00,
2013-09-24 11:56:00,66.4,55.1,29.91,ENE,76,8.0,8.0,67,0.00,,SKC,0.00,VWS V14.01,2013-09-24 16:56:00,
2013-09-24 12:01:00,66.6,55.7,29.91,East,89,2.0,5.0,68,0.00,,SKC,0.00,VWS V14.01,2013-09-24 17:01:00,
2013-09-24 12:06:00,67.2,55.0,29.90,ESE,116,4.0,9.0,65,0.00,,SKC,0.00,VWS V14.01,2013-09-24 17:06:00,
2013-09-24 12:11:00,67.4,55.7,29.90,East,101,6.0,9.0,66,0.00,,SKC,0.00,VWS V14.01,2013-09-24 17:11:00,
2013-09-24 12:16:00,67.7,56.0,29.91,East,97,4.0,9.0,66,0.00,,SKC,0.00,VWS V14.01,2013-09-24 17:16:00,
2013-09-24 12:21:00,68.0,55.8,29.90,East,81,6.0,11.0,65,0.00,,SKC,0.00,VWS V14.01,2013-09-24 17:21:00,
2013-09-24 12:26:00,68.1,55.5,29.90,ESE,117,6.0,11.0,64,0.00,,SKC,0.00,VWS V14.01,2013-09-24 17:26:00,
2013-09-24 12:31:00,68.3,56.5,29.90,East,86,0.0,4.0,66,0.00,,SKC,0.00,VWS V14.01,2013-09-24 17:31:00,
2013-09-24 12:36:00,68.6,55.1,29.90,East,100,5.0,10.0,62,0.00,,SKC,0.00,VWS V14.01,2013-09-24 17:36:00,
2013-09-24 12:41:00,68.9,55.4,29.90,ESE,116,6.0,10.0,62,0.00,,SKC,0.00,VWS V14.01,2013-09-24 17:41:00,
2013-09-24 12:46:00,69.1,56.0,29.90,ENE,76,5.0,10.0,63,0.00,,SKC,0.00,VWS V14.01,2013-09-24 17:46:00,
2013-09-24 12:51:00,69.4,56.3,29.89,NE,52,3.0,10.0,63,0.00,,SKC,0.00,VWS V14.01,2013-09-24 17:51:00,
2013-09-24 12:56:00,69.6,55.6,29.90,East,98,1.0,10.0,61,0.00,,SKC,0.00,VWS V14.01,2013-09-24 17:56:00,
2013-09-24 13:01:00,69.8,56.2,29.89,SE,128,8.0,8.0,62,0.00,,SKC,0.00,VWS V14.01,2013-09-24 18:01:00,
2013-09-24 13:06:00,70.1,56.5,29.89,East,98,1.0,10.0,62,0.00,,SKC,0.00,VWS V14.01,2013-09-24 18:06:00,
2013-09-24 13:11:00,70.4,56.8,29.89,ESE,105,2.0,10.0,62,0.00,,SKC,0.00,VWS V14.01,2013-09-24 18:11:00,
2013-09-24 13:16:00,70.7,56.6,29.89,ESE,117,2.0,10.0,61,0.00,,SKC,0.00,VWS V14.01,2013-09-24 18:16:00,
2013-09-24 13:21:00,70.8,55.3,29.89,East,83,5.0,10.0,58,0.00,,SKC,0.00,VWS V14.01,2013-09-24 18:21:00,
2013-09-24 13:26:00,70.9,56.3,29.89,East,99,2.0,10.0,60,0.00,,SKC,0.00,VWS V14.01,2013-09-24 18:26:00,
2013-09-24 13:31:00,71.0,56.0,29.89,East,96,4.0,8.0,59,0.00,,SKC,0.00,VWS V14.01,2013-09-24 18:31:00,
2013-09-24 13:36:00,71.1,56.1,29.89,ESE,107,0.0,8.0,59,0.00,,SKC,0.00,VWS V14.01,2013-09-24 18:36:00,
2013-09-24 13:41:00,71.3,56.2,29.89,ESE,107,2.0,8.0,59,0.00,,SKC,0.00,VWS V14.01,2013-09-24 18:41:00,
2013-09-24 13:46:00,71.4,55.9,29.88,ESE,115,6.0,9.0,58,0.00,,SKC,0.00,VWS V14.01,2013-09-24 18:46:00,
2013-09-24 13:51:00,71.5,56.4,29.88,East,96,5.0,10.0,59,0.00,,SKC,0.00,VWS V14.01,2013-09-24 18:51:00,
2013-09-24 13:56:00,71.6,55.6,29.88,East,82,3.0,10.0,57,0.00,,SKC,0.00,VWS V14.01,2013-09-24 18:56:00,
2013-09-24 14:01:00,71.6,54.1,29.88,SE,129,0.0,7.0,54,0.00,,SKC,0.00,VWS V14.01,2013-09-24 19:01:00,
2013-09-24 14:06:00,72.1,54.6,29.89,ENE,76,3.0,9.0,54,0.00,,SKC,0.00,VWS V14.01,2013-09-24 19:06:00,
2013-09-24 14:11:00,72.2,55.2,29.89,ESE,123,0.0,10.0,55,0.00,,SKC,0.00,VWS V14.01,2013-09-24 19:11:00,
2013-09-24 14:16:00,72.0,54.0,29.89,East,80,7.0,13.0,53,0.00,,SKC,0.00,VWS V14.01,2013-09-24 19:16:00,
2013-09-24 14:21:00,72.0,54.5,29.89,ESE,108,6.0,13.0,54,0.00,,SKC,0.00,VWS V14.01,2013-09-24 19:21:00,
2013-09-24 14:26:00,72.0,55.0,29.89,ESE,105,1.0,13.0,55,0.00,,SKC,0.00,VWS V14.01,2013-09-24 19:26:00,
2013-09-24 14:31:00,72.1,54.6,29.89,East,90,0.0,5.0,54,0.00,,SKC,0.00,VWS V14.01,2013-09-24 19:31:00,
2013-09-24 14:36:00,72.1,54.6,29.88,ESE,115,4.0,8.0,54,0.00,,SKC,0.00,VWS V14.01,2013-09-24 19:36:00,
2013-09-24 14:41:00,72.2,55.2,29.88,East,95,1.0,8.0,55,0.00,,SKC,0.00,VWS V14.01,2013-09-24 19:41:00,
2013-09-24 14:46:00,72.5,53.9,29.88,ESE,115,5.0,11.0,52,0.00,,SKC,0.00,VWS V14.01,2013-09-24 19:46:00,
2013-09-24 14:51:00,72.4,54.8,29.88,ESE,104,0.0,11.0,54,0.00,,SKC,0.00,VWS V14.01,2013-09-24 19:51:00,
2013-09-24 14:56:00,72.7,55.1,29.88,ESE,104,1.0,11.0,54,0.00,,SKC,0.00,VWS V14.01,2013-09-24 19:56:00,
2013-09-24 15:01:00,73.0,54.4,29.88,East,98,0.0,5.0,52,0.00,,SKC,0.00,VWS V14.01,2013-09-24 20:01:00,
2013-09-24 15:06:00,73.1,55.0,29.88,ESE,105,4.0,7.0,53,0.00,,SKC,0.00,VWS V14.01,2013-09-24 20:06:00,
2013-09-24 15:11:00,73.2,55.1,29.88,ESE,103,4.0,7.0,53,0.00,,SKC,0.00,VWS V14.01,2013-09-24 20:11:00,
2013-09-24 15:16:00,73.3,54.6,29.88,SSE,162,0.0,7.0,52,0.00,,SKC,0.00,VWS V14.01,2013-09-24 20:16:00,
2013-09-24 15:21:00,73.5,54.8,29.88,ESE,105,2.0,7.0,52,0.00,,SKC,0.00,VWS V14.01,2013-09-24 20:21:00,
2013-09-24 15:26:00,73.5,54.3,29.87,East,92,0.0,7.0,51,0.00,,SKC,0.00,VWS V14.01,2013-09-24 20:26:00,
2013-09-24 15:31:00,73.6,54.9,29.87,ESE,118,5.0,7.0,52,0.00,,SKC,0.00,VWS V14.01,2013-09-24 20:31:00,
2013-09-24 15:36:00,73.7,53.9,29.88,ESE,113,4.0,7.0,50,0.00,,SKC,0.00,VWS V14.01,2013-09-24 20:36:00,
2013-09-24 15:41:00,73.6,54.4,29.87,ESE,111,4.0,7.0,51,0.00,,SKC,0.00,VWS V14.01,2013-09-24 20:41:00,
2013-09-24 15:46:00,73.4,54.2,29.87,ESE,109,5.0,9.0,51,0.00,,SKC,0.00,VWS V14.01,2013-09-24 20:46:00,
2013-09-24 15:51:00,73.0,53.8,29.87,ENE,68,0.0,9.0,51,0.00,,SKC,0.00,VWS V14.01,2013-09-24 20:51:00,
2013-09-24 15:56:00,72.9,54.3,29.88,East,93,0.0,9.0,52,0.00,,SKC,0.00,VWS V14.01,2013-09-24 20:56:00,
2013-09-24 16:01:00,73.2,54.5,29.87,East,93,0.0,1.0,52,0.00,,SKC,0.00,VWS V14.01,2013-09-24 21:01:00,
2013-09-24 16:06:00,73.5,54.3,29.87,East,100,4.0,7.0,51,0.00,,SKC,0.00,VWS V14.01,2013-09-24 21:06:00,
2013-09-24 16:11:00,73.5,54.8,29.87,ESE,107,6.0,7.0,52,0.00,,SKC,0.00,VWS V14.01,2013-09-24 21:11:00,
2013-09-24 16:16:00,73.2,54.5,29.86,ESE,104,4.0,9.0,52,0.00,,SKC,0.00,VWS V14.01,2013-09-24 21:16:00,
2013-09-24 16:21:00,73.1,53.4,29.86,East,98,0.0,9.0,50,0.00,,SKC,0.00,VWS V14.01,2013-09-24 21:21:00,
2013-09-24 16:26:00,73.2,54.0,29.86,East,98,0.0,9.0,51,0.00,,SKC,0.00,VWS V14.01,2013-09-24 21:26:00,
2013-09-24 16:31:00,73.4,54.2,29.87,ENE,62,0.0,3.0,51,0.00,,SKC,0.00,VWS V14.01,2013-09-24 21:31:00,
2013-09-24 16:36:00,73.5,55.3,29.87,ESE,105,0.0,5.0,53,0.00,,SKC,0.00,VWS V14.01,2013-09-24 21:36:00,
2013-09-24 16:41:00,73.4,54.2,29.86,ESE,107,0.0,5.0,51,0.00,,SKC,0.00,VWS V14.01,2013-09-24 21:41:00,
2013-09-24 16:46:00,73.2,54.5,29.86,ESE,112,0.0,5.0,52,0.00,,SKC,0.00,VWS V14.01,2013-09-24 21:46:00,
2013-09-24 16:51:00,73.1,54.5,29.86,East,88,0.0,5.0,52,0.00,,SKC,0.00,VWS V14.01,2013-09-24 21:51:00,
2013-09-24 16:56:00,73.0,54.4,29.87,ESE,106,2.0,5.0,52,0.00,,SKC,0.00,VWS V14.01,2013-09-24 21:56:00,
2013-09-24 17:01:00,73.0,54.4,29.87,ESE,111,0.0,4.0,52,0.00,,SKC,0.00,VWS V14.01,2013-09-24 22:01:00,
2013-09-24 17:06:00,72.9,54.3,29.87,ESE,111,0.0,4.0,52,0.00,,SKC,0.00,VWS V14.01,2013-09-24 22:06:00,
2013-09-24 17:11:00,72.8,54.7,29.87,ESE,109,2.0,4.0,53,0.00,,SKC,0.00,VWS V14.01,2013-09-24 22:11:00,
2013-09-24 17:16:00,72.9,54.8,29.87,ESE,111,0.0,4.0,53,0.00,,SKC,0.00,VWS V14.01,2013-09-24 22:16:00,
2013-09-24 17:21:00,72.9,54.8,29.87,ESE,111,0.0,4.0,53,0.00,,SKC,0.00,VWS V14.01,2013-09-24 22:21:00,
2013-09-24 17:26:00,72.9,53.7,29.87,ESE,111,0.0,4.0,51,0.00,,SKC,0.00,VWS V14.01,2013-09-24 22:26:00,
2013-09-24 17:31:00,73.1,55.5,29.87,ESE,111,0.0,0.0,54,0.00,,SKC,0.00,VWS V14.01,2013-09-24 22:31:00,
2013-09-24 17:36:00,73.3,55.2,29.87,ESE,111,0.0,1.0,53,0.00,,SKC,0.00,VWS V14.01,2013-09-24 22:36:00,
2013-09-24 17:41:00,73.3,54.6,29.87,ESE,111,0.0,1.0,52,0.00,,SKC,0.00,VWS V14.01,2013-09-24 22:41:00,
2013-09-24 17:46:00,73.2,55.6,29.87,ESE,111,0.0,4.0,54,0.00,,SKC,0.00,VWS V14.01,2013-09-24 22:46:00,
2013-09-24 17:51:00,72.8,55.2,29.87,ESE,111,0.0,4.0,54,0.00,,SKC,0.00,VWS V14.01,2013-09-24 22:51:00,
2013-09-24 17:56:00,72.4,55.3,29.87,ESE,111,0.0,4.0,55,0.00,,SKC,0.00,VWS V14.01,2013-09-24 22:56:00,
2013-09-24 18:01:00,72.0,56.4,29.87,ESE,111,0.0,0.0,58,0.00,,SKC,0.00,VWS V14.01,2013-09-24 23:01:00,
2013-09-24 18:06:00,71.4,55.9,29.87,ESE,111,0.0,0.0,58,0.00,,SKC,0.00,VWS V14.01,2013-09-24 23:06:00,
2013-09-24 18:11:00,71.0,56.0,29.87,ESE,111,0.0,0.0,59,0.00,,SKC,0.00,VWS V14.01,2013-09-24 23:11:00,
2013-09-24 18:16:00,70.5,56.0,29.87,ESE,111,0.0,0.0,60,0.00,,SKC,0.00,VWS V14.01,2013-09-24 23:16:00,
2013-09-24 18:21:00,70.1,56.5,29.87,ESE,111,0.0,0.0,62,0.00,,SKC,0.00,VWS V14.01,2013-09-24 23:21:00,
2013-09-24 18:26:00,69.7,57.0,29.87,ESE,111,0.0,0.0,64,0.00,,SKC,0.00,VWS V14.01,2013-09-24 23:26:00,
2013-09-24 18:31:00,69.2,56.5,29.87,ESE,111,0.0,0.0,64,0.00,,SKC,0.00,VWS V14.01,2013-09-24 23:31:00,
2013-09-24 18:36:00,68.7,56.9,29.87,ESE,111,0.0,0.0,66,0.00,,SKC,0.00,VWS V14.01,2013-09-24 23:36:00,
2013-09-24 18:41:00,68.2,56.8,29.88,ESE,111,0.0,0.0,67,0.00,,SKC,0.00,VWS V14.01,2013-09-24 23:41:00,
2013-09-24 18:46:00,67.6,57.1,29.88,ESE,111,0.0,0.0,69,0.00,,SKC,0.00,VWS V14.01,2013-09-24 23:46:00,
2013-09-24 18:51:00,66.9,57.2,29.88,ESE,111,0.0,0.0,71,0.00,,SKC,0.00,VWS V14.01,2013-09-24 23:51:00,
2013-09-24 18:56:00,66.1,57.2,29.88,ESE,111,0.0,0.0,73,0.00,,SKC,0.00,VWS V14.01,2013-09-24 23:56:00,
2013-09-24 19:01:00,65.3,57.2,29.87,ESE,111,0.0,0.0,75,0.00,,SKC,0.00,VWS V14.01,2013-09-25 00:01:00,
2013-09-24 19:06:00,64.6,56.9,29.88,ESE,111,0.0,0.0,76,0.00,,SKC,0.00,VWS V14.01,2013-09-25 00:06:00,
2013-09-24 19:11:00,63.9,56.9,29.88,ESE,111,0.0,0.0,78,0.00,,SKC,0.00,VWS V14.01,2013-09-25 00:11:00,
2013-09-24 19:16:00,63.2,56.6,29.87,ESE,111,0.0,0.0,79,0.00,,SKC,0.00,VWS V14.01,2013-09-25 00:16:00,
2013-09-24 19:21:00,62.6,56.3,29.88,ESE,111,0.0,0.0,80,0.00,,SKC,0.00,VWS V14.01,2013-09-25 00:21:00,
2013-09-24 19:26:00,62.1,56.2,29.87,ESE,111,0.0,0.0,81,0.00,,SKC,0.00,VWS V14.01,2013-09-25 00:26:00,
2013-09-24 19:31:00,61.6,56.1,29.87,ESE,111,0.0,0.0,82,0.00,,SKC,0.00,VWS V14.01,2013-09-25 00:31:00,
2013-09-24 19:36:00,61.1,55.6,29.87,ESE,111,0.0,0.0,82,0.00,,SKC,0.00,VWS V14.01,2013-09-25 00:36:00,
2013-09-24 19:41:00,60.6,55.4,29.87,ESE,111,0.0,0.0,83,0.00,,SKC,0.00,VWS V14.01,2013-09-25 00:41:00,
2013-09-24 19:46:00,59.9,55.1,29.87,ESE,111,0.0,0.0,84,0.00,,SKC,0.00,VWS V14.01,2013-09-25 00:46:00,
2013-09-24 19:51:00,59.3,55.1,29.87,ESE,111,0.0,0.0,86,0.00,,SKC,0.00,VWS V14.01,2013-09-25 00:51:00,
2013-09-24 19:56:00,58.9,55.0,29.88,ESE,111,0.0,0.0,87,0.00,,SKC,0.00,VWS V14.01,2013-09-25 00:56:00,
2013-09-24 20:01:00,58.6,54.8,29.87,ESE,111,0.0,0.0,87,0.00,,SKC,0.00,VWS V14.01,2013-09-25 01:01:00,
2013-09-24 20:06:00,58.0,54.5,29.88,ESE,111,0.0,0.0,88,0.00,,SKC,0.00,VWS V14.01,2013-09-25 01:06:00,
2013-09-24 20:11:00,57.7,54.2,29.87,ESE,111,0.0,0.0,88,0.00,,SKC,0.00,VWS V14.01,2013-09-25 01:11:00,
2013-09-24 20:16:00,57.3,54.1,29.88,ESE,111,0.0,0.0,89,0.00,,SKC,0.00,VWS V14.01,2013-09-25 01:16:00,
2013-09-24 20:21:00,57.0,53.8,29.88,ESE,111,0.0,0.0,89,0.00,,SKC,0.00,VWS V14.01,2013-09-25 01:21:00,
2013-09-24 20:26:00,56.7,53.8,29.88,ESE,111,0.0,0.0,90,0.00,,SKC,0.00,VWS V14.01,2013-09-25 01:26:00,
2013-09-24 20:31:00,56.4,53.5,29.88,ESE,111,0.0,0.0,90,0.00,,SKC,0.00,VWS V14.01,2013-09-25 01:31:00,
2013-09-24 20:36:00,56.2,53.6,29.88,ESE,111,0.0,0.0,91,0.00,,SKC,0.00,VWS V14.01,2013-09-25 01:36:00,
2013-09-24 20:41:00,56.0,53.4,29.89,ESE,111,0.0,0.0,91,0.00,,SKC,0.00,VWS V14.01,2013-09-25 01:41:00,
2013-09-24 20:46:00,55.7,53.1,29.89,ESE,111,0.0,0.0,91,0.00,,SKC,0.00,VWS V14.01,2013-09-25 01:46:00,
2013-09-24 20:51:00,55.5,52.9,29.89,ESE,111,0.0,0.0,91,0.00,,SKC,0.00,VWS V14.01,2013-09-25 01:51:00,
2013-09-24 20:56:00,55.3,52.7,29.88,ESE,111,0.0,0.0,91,0.00,,SKC,0.00,VWS V14.01,2013-09-25 01:56:00,
2013-09-24 21:01:00,55.1,52.8,29.88,ESE,111,0.0,0.0,92,0.00,,SKC,0.00,VWS V14.01,2013-09-25 02:01:00,
2013-09-24 21:06:00,54.9,52.6,29.88,ESE,111,0.0,0.0,92,0.00,,SKC,0.00,VWS V14.01,2013-09-25 02:06:00,
2013-09-24 21:11:00,54.7,52.7,29.88,ESE,111,0.0,0.0,93,0.00,,SKC,0.00,VWS V14.01,2013-09-25 02:11:00,
2013-09-24 21:16:00,54.5,52.5,29.88,ESE,111,0.0,0.0,93,0.00,,SKC,0.00,VWS V14.01,2013-09-25 02:16:00,
2013-09-24 21:21:00,54.4,52.4,29.88,ESE,111,0.0,0.0,93,0.00,,SKC,0.00,VWS V14.01,2013-09-25 02:21:00,
2013-09-24 21:26:00,54.2,52.2,29.88,ESE,111,0.0,0.0,93,0.00,,SKC,0.00,VWS V14.01,2013-09-25 02:26:00,
2013-09-24 21:31:00,54.0,52.0,29.88,ESE,111,0.0,0.0,93,0.00,,SKC,0.00,VWS V14.01,2013-09-25 02:31:00,
2013-09-24 21:36:00,53.8,51.8,29.89,ESE,111,0.0,0.0,93,0.00,,SKC,0.00,VWS V14.01,2013-09-25 02:36:00,
2013-09-24 21:41:00,53.7,51.7,29.89,ESE,111,0.0,0.0,93,0.00,,SKC,0.00,VWS V14.01,2013-09-25 02:41:00,
2013-09-24 21:45:00,53.5,51.5,29.89,ESE,111,0.0,0.0,93,0.00,,SKC,0.00,VWS V14.01,2013-09-25 02:45:00,
2013-09-24 21:50:00,53.3,51.3,29.89,ESE,111,0.0,0.0,93,0.00,,SKC,0.00,VWS V14.01,2013-09-25 02:50:00,
2013-09-24 21:55:00,53.1,51.1,29.89,ESE,111,0.0,0.0,93,0.00,,SKC,0.00,VWS V14.01,2013-09-25 02:55:00,
2013-09-24 22:00:00,53.0,51.3,29.89,ESE,111,0.0,0.0,94,0.00,,SKC,0.00,VWS V14.01,2013-09-25 03:00:00,
2013-09-24 22:06:00,52.9,51.2,29.89,ESE,111,0.0,0.0,94,0.00,,SKC,0.00,VWS V14.01,2013-09-25 03:06:00,
2013-09-24 22:11:00,52.7,51.0,29.89,ESE,111,0.0,0.0,94,0.00,,SKC,0.00,VWS V14.01,2013-09-25 03:11:00,
2013-09-24 22:16:00,52.6,50.9,29.89,ESE,111,0.0,0.0,94,0.00,,SKC,0.00,VWS V14.01,2013-09-25 03:16:00,
2013-09-24 22:21:00,52.5,50.8,29.89,ESE,111,0.0,0.0,94,0.00,,SKC,0.00,VWS V14.01,2013-09-25 03:21:00,
2013-09-24 22:26:00,52.3,50.9,29.89,ESE,111,0.0,0.0,95,0.00,,SKC,0.00,VWS V14.01,2013-09-25 03:26:00,
2013-09-24 22:31:00,52.2,50.5,29.89,ESE,111,0.0,0.0,94,0.00,,SKC,0.00,VWS V14.01,2013-09-25 03:31:00,
2013-09-24 22:35:00,52.1,50.7,29.89,ESE,111,0.0,0.0,95,0.00,,SKC,0.00,VWS V14.01,2013-09-25 03:35:00,
2013-09-24 22:40:00,52.0,50.6,29.89,ESE,111,0.0,0.0,95,0.00,,SKC,0.00,VWS V14.01,2013-09-25 03:40:00,
2013-09-24 22:45:00,51.8,50.1,29.89,ESE,111,0.0,0.0,94,0.00,,SKC,0.00,VWS V14.01,2013-09-25 03:45:00,
2013-09-24 22:50:00,51.6,49.9,29.89,ESE,111,0.0,0.0,94,0.00,,SKC,0.00,VWS V14.01,2013-09-25 03:50:00,
2013-09-24 22:55:00,51.5,50.1,29.89,ESE,111,0.0,0.0,95,0.00,,SKC,0.00,VWS V14.01,2013-09-25 03:55:00,
2013-09-24 23:00:00,51.4,50.0,29.89,ESE,111,0.0,0.0,95,0.00,,SKC,0.00,VWS V14.01,2013-09-25 04:00:00,
2013-09-24 23:01:00,51.4,50.0,29.89,ESE,111,0.0,0.0,95,0.00,,SKC,0.00,VWS V14.01,2013-09-25 04:01:00,
2013-09-24 23:06:00,51.3,49.9,29.89,ESE,111,0.0,0.0,95,0.00,,SKC,0.00,VWS V14.01,2013-09-25 04:06:00,
2013-09-24 23:11:00,51.2,49.8,29.89,ESE,111,0.0,0.0,95,0.00,,SKC,0.00,VWS V14.01,2013-09-25 04:11:00,
2013-09-24 23:16:00,51.1,49.7,29.89,ESE,111,0.0,0.0,95,0.00,,SKC,0.00,VWS V14.01,2013-09-25 04:16:00,
2013-09-24 23:21:00,51.0,49.6,29.89,ESE,111,0.0,0.0,95,0.00,,SKC,0.00,VWS V14.01,2013-09-25 04:21:00,
2013-09-24 23:26:00,50.7,49.3,29.89,ESE,111,0.0,0.0,95,0.00,,SKC,0.00,VWS V14.01,2013-09-25 04:26:00,
2013-09-24 23:31:00,50.5,49.1,29.89,ESE,111,0.0,0.0,95,0.00,,SKC,0.00,VWS V14.01,2013-09-25 04:31:00,
2013-09-24 23:36:00,50.4,49.0,29.89,ESE,111,0.0,0.0,95,0.00,,SKC,0.00,VWS V14.01,2013-09-25 04:36:00,
2013-09-24 23:41:00,50.3,48.9,29.89,ESE,111,0.0,0.0,95,0.00,,SKC,0.00,VWS V14.01,2013-09-25 04:41:00,
2013-09-24 23:46:00,50.2,48.8,29.89,ESE,111,0.0,0.0,95,0.00,,SKC,0.00,VWS V14.01,2013-09-25 04:46:00,
2013-09-24 23:51:00,50.1,48.7,29.89,ESE,111,0.0,0.0,95,0.00,,SKC,0.00,VWS V14.01,2013-09-25 04:51:00,
2013-09-24 23:56:00,50.0,48.6,29.89,ESE,111,0.0,0.0,95,0.00,,SKC,0.00,VWS V14.01,2013-09-25 04:56:00,